sensor_id;sensor_type;location;lat;lon;timestamp;pressure;altitude;pressure_sealevel;temperature;humidity
83104;BME280;72975;48.134;11.630;2023-11-21T00:00:36;95030.75;;;7.09;75.46
83104;BME280;72975;48.134;11.630;2023-11-21T00:03:03;95025.75;;;7.11;75.15
83104;BME280;72975;48.134;11.630;2023-11-21T00:05:31;95021.13;;;7.11;75.07
83104;BME280;72975;48.134;11.630;2023-11-21T00:08:08;95018.50;;;7.08;75.56
83104;BME280;72975;48.134;11.630;2023-11-21T00:10:37;95025.38;;;7.09;76.80
83104;BME280;72975;48.134;11.630;2023-11-21T00:13:07;95012.38;;;7.07;76.87
83104;BME280;72975;48.134;11.630;2023-11-21T00:15:34;95027.75;;;7.03;77.47
83104;BME280;72975;48.134;11.630;2023-11-21T00:18:04;95017.75;;;7.04;77.46
83104;BME280;72975;48.134;11.630;2023-11-21T00:20:32;95014.41;;;6.93;78.06
83104;BME280;72975;48.134;11.630;2023-11-21T00:22:59;95005.63;;;6.89;77.90
83104;BME280;72975;48.134;11.630;2023-11-21T00:25:30;94995.25;;;6.91;77.84
83104;BME280;72975;48.134;11.630;2023-11-21T00:27:58;94995.16;;;7.01;77.80
83104;BME280;72975;48.134;11.630;2023-11-21T00:30:28;94984.09;;;6.96;78.53
83104;BME280;72975;48.134;11.630;2023-11-21T00:32:56;94983.28;;;6.99;78.07
83104;BME280;72975;48.134;11.630;2023-11-21T00:35:23;94976.03;;;6.96;78.26
83104;BME280;72975;48.134;11.630;2023-11-21T00:37:50;94974.16;;;6.93;77.92
83104;BME280;72975;48.134;11.630;2023-11-21T00:40:18;94974.19;;;6.89;77.90
83104;BME280;72975;48.134;11.630;2023-11-21T00:42:49;94971.09;;;6.91;77.79
83104;BME280;72975;48.134;11.630;2023-11-21T00:45:16;94972.63;;;6.92;78.44
83104;BME280;72975;48.134;11.630;2023-11-21T00:47:43;94971.84;;;6.95;77.44
83104;BME280;72975;48.134;11.630;2023-11-21T00:50:10;94964.84;;;7.04;77.51
83104;BME280;72975;48.134;11.630;2023-11-21T00:52:37;94971.75;;;7.02;77.79
83104;BME280;72975;48.134;11.630;2023-11-21T00:55:05;94961.00;;;7.05;76.91
83104;BME280;72975;48.134;11.630;2023-11-21T00:57:35;94968.31;;;7.05;77.13
83104;BME280;72975;48.134;11.630;2023-11-21T01:00:05;94964.88;;;7.01;77.48
83104;BME280;72975;48.134;11.630;2023-11-21T01:02:44;94971.38;;;7.03;76.91
83104;BME280;72975;48.134;11.630;2023-11-21T01:05:12;94970.28;;;6.97;77.58
83104;BME280;72975;48.134;11.630;2023-11-21T01:07:39;94973.34;;;6.96;77.75
83104;BME280;72975;48.134;11.630;2023-11-21T01:10:07;94969.97;;;6.92;77.18
83104;BME280;72975;48.134;11.630;2023-11-21T01:12:37;94965.31;;;6.96;77.47
83104;BME280;72975;48.134;11.630;2023-11-21T01:15:07;94980.16;;;7.07;77.68
83104;BME280;72975;48.134;11.630;2023-11-21T01:17:35;94974.03;;;7.07;77.84
83104;BME280;72975;48.134;11.630;2023-11-21T01:20:03;94972.47;;;7.09;77.76
83104;BME280;72975;48.134;11.630;2023-11-21T01:22:33;94970.19;;;7.08;77.86
83104;BME280;72975;48.134;11.630;2023-11-21T01:25:00;94971.75;;;7.02;78.17
83104;BME280;72975;48.134;11.630;2023-11-21T01:27:27;94968.38;;;6.98;78.19
83104;BME280;72975;48.134;11.630;2023-11-21T01:29:54;94958.06;;;6.93;78.43
83104;BME280;72975;48.134;11.630;2023-11-21T01:32:21;94968.06;;;6.89;78.75
83104;BME280;72975;48.134;11.630;2023-11-21T01:34:50;94963.41;;;6.93;78.68
83104;BME280;72975;48.134;11.630;2023-11-21T01:37:17;94964.97;;;6.94;78.84
83104;BME280;72975;48.134;11.630;2023-11-21T01:39:44;94970.34;;;6.94;78.50
83104;BME280;72975;48.134;11.630;2023-11-21T01:42:14;94977.97;;;6.95;78.51
83104;BME280;72975;48.134;11.630;2023-11-21T01:44:42;94979.91;;;6.95;78.51
83104;BME280;72975;48.134;11.630;2023-11-21T01:47:09;94968.00;;;6.96;78.50
83104;BME280;72975;48.134;11.630;2023-11-21T01:49:37;94976.44;;;6.94;78.71
83104;BME280;72975;48.134;11.630;2023-11-21T01:52:05;94968.75;;;6.96;78.28
83104;BME280;72975;48.134;11.630;2023-11-21T01:54:33;94972.28;;;6.90;78.53
83104;BME280;72975;48.134;11.630;2023-11-21T01:57:01;94972.66;;;6.88;78.84
83104;BME280;72975;48.134;11.630;2023-11-21T01:59:35;94974.13;;;6.96;78.84
83104;BME280;72975;48.134;11.630;2023-11-21T02:02:05;94973.34;;;6.96;78.39
83104;BME280;72975;48.134;11.630;2023-11-21T02:04:34;94966.78;;;7.00;77.84
83104;BME280;72975;48.134;11.630;2023-11-21T02:07:03;94972.91;;;7.04;76.83
83104;BME280;72975;48.134;11.630;2023-11-21T02:09:34;94978.72;;;6.96;77.51
83104;BME280;72975;48.134;11.630;2023-11-21T02:12:05;94988.25;;;7.00;77.42
83104;BME280;72975;48.134;11.630;2023-11-21T02:14:32;94977.94;;;6.99;77.32
83104;BME280;72975;48.134;11.630;2023-11-21T02:16:59;94982.16;;;7.00;77.16
83104;BME280;72975;48.134;11.630;2023-11-21T02:19:27;94986.84;;;6.89;77.61
83104;BME280;72975;48.134;11.630;2023-11-21T02:21:57;94984.91;;;6.89;77.82
83104;BME280;72975;48.134;11.630;2023-11-21T02:24:27;94977.59;;;6.97;77.23
83104;BME280;72975;48.134;11.630;2023-11-21T02:26:54;94987.50;;;7.03;77.36
83104;BME280;72975;48.134;11.630;2023-11-21T02:29:22;94976.34;;;7.05;77.24
83104;BME280;72975;48.134;11.630;2023-11-21T02:31:55;94984.03;;;7.03;76.97
83104;BME280;72975;48.134;11.630;2023-11-21T02:34:23;94978.66;;;7.03;77.53
83104;BME280;72975;48.134;11.630;2023-11-21T02:36:52;94988.38;;;6.90;77.00
83104;BME280;72975;48.134;11.630;2023-11-21T02:39:20;94990.25;;;6.93;77.35
83104;BME280;72975;48.134;11.630;2023-11-21T02:41:49;94987.94;;;6.95;77.46
83104;BME280;72975;48.134;11.630;2023-11-21T02:44:17;94983.28;;;6.99;78.07
83104;BME280;72975;48.134;11.630;2023-11-21T02:46:44;94981.94;;;6.77;78.38
83104;BME280;72975;48.134;11.630;2023-11-21T02:49:11;94984.00;;;6.62;79.79
83104;BME280;72975;48.134;11.630;2023-11-21T02:51:38;94976.66;;;6.73;80.06
83104;BME280;72975;48.134;11.630;2023-11-21T02:54:06;94982.75;;;6.74;79.70
83104;BME280;72975;48.134;11.630;2023-11-21T02:56:34;94964.34;;;6.76;78.77
83104;BME280;72975;48.134;11.630;2023-11-21T02:59:02;94967.75;;;6.80;77.64
83104;BME280;72975;48.134;11.630;2023-11-21T03:01:30;94957.50;;;6.71;78.50
83104;BME280;72975;48.134;11.630;2023-11-21T03:03:57;94955.09;;;6.80;78.67
83104;BME280;72975;48.134;11.630;2023-11-21T03:06:25;94953.91;;;6.85;78.45
83104;BME280;72975;48.134;11.630;2023-11-21T03:08:52;94960.38;;;6.91;78.76
83104;BME280;72975;48.134;11.630;2023-11-21T03:11:19;94960.34;;;6.94;78.73
83104;BME280;72975;48.134;11.630;2023-11-21T03:13:46;94953.63;;;6.76;79.09
83104;BME280;72975;48.134;11.630;2023-11-21T03:16:13;94952.06;;;6.78;79.22
83104;BME280;72975;48.134;11.630;2023-11-21T03:18:40;94955.09;;;6.80;78.95
83104;BME280;72975;48.134;11.630;2023-11-21T03:21:09;94952.03;;;6.82;79.57
83104;BME280;72975;48.134;11.630;2023-11-21T03:23:36;94958.94;;;6.83;79.34
83104;BME280;72975;48.134;11.630;2023-11-21T03:26:04;94951.63;;;6.83;79.80
83104;BME280;72975;48.134;11.630;2023-11-21T03:28:31;94945.53;;;6.83;79.38
83104;BME280;72975;48.134;11.630;2023-11-21T03:30:58;94942.50;;;6.74;79.77
83104;BME280;72975;48.134;11.630;2023-11-21T03:33:25;94940.94;;;6.80;79.59
83104;BME280;72975;48.134;11.630;2023-11-21T03:35:52;94942.88;;;6.76;79.74
83104;BME280;72975;48.134;11.630;2023-11-21T03:38:20;94943.59;;;6.83;79.90
83104;BME280;72975;48.134;11.630;2023-11-21T03:40:47;94942.03;;;6.86;79.34
83104;BME280;72975;48.134;11.630;2023-11-21T03:43:15;94936.69;;;6.86;79.23
83104;BME280;72975;48.134;11.630;2023-11-21T03:45:42;94948.16;;;6.86;79.48
83104;BME280;72975;48.134;11.630;2023-11-21T03:48:09;94938.22;;;6.83;78.56
83104;BME280;72975;48.134;11.630;2023-11-21T03:50:38;94943.53;;;6.90;78.09
83104;BME280;72975;48.134;11.630;2023-11-21T03:53:06;94945.06;;;6.88;78.76
83104;BME280;72975;48.134;11.630;2023-11-21T03:55:33;94953.16;;;6.84;79.03
83104;BME280;72975;48.134;11.630;2023-11-21T03:58:00;94949.72;;;6.84;78.91
83104;BME280;72975;48.134;11.630;2023-11-21T04:00:28;94952.78;;;6.82;79.27
83104;BME280;72975;48.134;11.630;2023-11-21T04:02:55;94956.59;;;6.85;78.43
83104;BME280;72975;48.134;11.630;2023-11-21T04:05:22;94958.53;;;6.84;78.48
83104;BME280;72975;48.134;11.630;2023-11-21T04:07:50;94955.84;;;6.84;79.05
83104;BME280;72975;48.134;11.630;2023-11-21T04:10:18;94947.75;;;6.88;78.78
83104;BME280;72975;48.134;11.630;2023-11-21T04:12:45;94957.25;;;6.96;78.16
83104;BME280;72975;48.134;11.630;2023-11-21T04:15:13;94955.84;;;6.84;78.42
83104;BME280;72975;48.134;11.630;2023-11-21T04:17:41;94951.59;;;6.87;78.24
83104;BME280;72975;48.134;11.630;2023-11-21T04:20:09;94942.44;;;6.84;78.94
83104;BME280;72975;48.134;11.630;2023-11-21T04:22:40;94940.50;;;6.85;79.37
83104;BME280;72975;48.134;11.630;2023-11-21T04:25:12;94949.28;;;6.89;77.84
83104;BME280;72975;48.134;11.630;2023-11-21T04:27:41;94943.50;;;6.94;77.97
83104;BME280;72975;48.134;11.630;2023-11-21T04:30:12;94945.72;;;6.99;78.01
83104;BME280;72975;48.134;11.630;2023-11-21T04:32:39;94956.47;;;6.99;78.07
83104;BME280;72975;48.134;11.630;2023-11-21T04:35:06;94959.25;;;6.88;79.03
83104;BME280;72975;48.134;11.630;2023-11-21T04:37:35;94958.06;;;6.93;78.13
83104;BME280;72975;48.134;11.630;2023-11-21T04:40:03;94962.72;;;6.85;78.31
83104;BME280;72975;48.134;11.630;2023-11-21T04:42:35;94964.31;;;6.83;78.53
83104;BME280;72975;48.134;11.630;2023-11-21T04:45:05;94960.84;;;6.82;78.46
83104;BME280;72975;48.134;11.630;2023-11-21T04:47:36;94957.38;;;6.82;78.81
83104;BME280;72975;48.134;11.630;2023-11-21T04:50:04;94950.50;;;6.84;78.14
83104;BME280;72975;48.134;11.630;2023-11-21T04:52:31;94952.72;;;6.89;77.83
83104;BME280;72975;48.134;11.630;2023-11-21T04:55:00;94957.69;;;6.91;77.69
83104;BME280;72975;48.134;11.630;2023-11-21T04:57:28;94953.50;;;6.86;78.67
83104;BME280;72975;48.134;11.630;2023-11-21T04:59:55;94954.25;;;6.90;78.52
83104;BME280;72975;48.134;11.630;2023-11-21T05:02:22;94955.09;;;6.84;79.05
83104;BME280;72975;48.134;11.630;2023-11-21T05:05:02;94958.56;;;6.81;78.87
83104;BME280;72975;48.134;11.630;2023-11-21T05:07:29;94965.13;;;6.73;78.91
83104;BME280;72975;48.134;11.630;2023-11-21T05:09:58;94959.00;;;6.72;79.47
83104;BME280;72975;48.134;11.630;2023-11-21T05:12:25;94953.31;;;6.67;79.67
83104;BME280;72975;48.134;11.630;2023-11-21T05:14:52;94963.28;;;6.66;79.84
83104;BME280;72975;48.134;11.630;2023-11-21T05:17:19;94952.94;;;6.65;79.47
83104;BME280;72975;48.134;11.630;2023-11-21T05:19:46;94955.25;;;6.63;79.50
83104;BME280;72975;48.134;11.630;2023-11-21T05:22:16;94965.19;;;6.66;79.54
83104;BME280;72975;48.134;11.630;2023-11-21T05:24:43;94974.41;;;6.65;79.08
83104;BME280;72975;48.134;11.630;2023-11-21T05:27:10;94966.72;;;6.67;79.12
83104;BME280;72975;48.134;11.630;2023-11-21T05:29:37;94972.81;;;6.71;79.44
83104;BME280;72975;48.134;11.630;2023-11-21T05:32:05;94970.16;;;6.67;79.79
83104;BME280;72975;48.134;11.630;2023-11-21T05:34:32;94985.13;;;6.65;79.52
83104;BME280;72975;48.134;11.630;2023-11-21T05:36:59;94982.81;;;6.67;79.74
83104;BME280;72975;48.134;11.630;2023-11-21T05:39:26;94980.94;;;6.64;79.62
83104;BME280;72975;48.134;11.630;2023-11-21T05:41:54;94969.75;;;6.69;79.49
83104;BME280;72975;48.134;11.630;2023-11-21T05:44:22;94969.41;;;6.67;79.51
83104;BME280;72975;48.134;11.630;2023-11-21T05:46:50;94966.66;;;6.74;79.59
83104;BME280;72975;48.134;11.630;2023-11-21T05:49:17;94980.50;;;6.69;79.74
83104;BME280;72975;48.134;11.630;2023-11-21T05:51:48;94976.59;;;6.77;78.47
83104;BME280;72975;48.134;11.630;2023-11-21T05:54:15;94978.56;;;6.73;79.15
83104;BME280;72975;48.134;11.630;2023-11-21T05:56:43;94971.31;;;6.70;79.35
83104;BME280;72975;48.134;11.630;2023-11-21T05:59:11;94978.56;;;6.69;79.04
83104;BME280;72975;48.134;11.630;2023-11-21T06:01:38;94985.91;;;6.62;79.11
83104;BME280;72975;48.134;11.630;2023-11-21T06:04:05;94988.91;;;6.71;79.07
83104;BME280;72975;48.134;11.630;2023-11-21T06:06:35;94983.53;;;6.71;79.02
83104;BME280;72975;48.134;11.630;2023-11-21T06:09:02;94980.06;;;6.74;78.96
83104;BME280;72975;48.134;11.630;2023-11-21T06:11:30;94987.03;;;6.68;78.79
83104;BME280;72975;48.134;11.630;2023-11-21T06:14:00;94994.25;;;6.74;79.32
83104;BME280;72975;48.134;11.630;2023-11-21T06:16:27;94991.16;;;6.76;78.73
83104;BME280;72975;48.134;11.630;2023-11-21T06:18:54;95004.97;;;6.74;79.48
83104;BME280;72975;48.134;11.630;2023-11-21T06:21:21;95008.03;;;6.76;79.13
83104;BME280;72975;48.134;11.630;2023-11-21T06:23:48;95012.63;;;6.76;79.93
83104;BME280;72975;48.134;11.630;2023-11-21T06:26:22;95009.25;;;6.68;80.29
83104;BME280;72975;48.134;11.630;2023-11-21T06:28:50;95004.22;;;6.74;79.84
83104;BME280;72975;48.134;11.630;2023-11-21T06:31:18;95011.53;;;6.70;79.55
83104;BME280;72975;48.134;11.630;2023-11-21T06:33:45;95018.41;;;6.74;80.26
83104;BME280;72975;48.134;11.630;2023-11-21T06:36:12;95018.03;;;6.72;79.79
83104;BME280;72975;48.134;11.630;2023-11-21T06:38:40;95014.63;;;6.65;79.68
83104;BME280;72975;48.134;11.630;2023-11-21T06:41:06;95014.25;;;6.63;79.45
83104;BME280;72975;48.134;11.630;2023-11-21T06:43:34;95021.13;;;6.67;79.65
83104;BME280;72975;48.134;11.630;2023-11-21T06:46:01;95017.28;;;6.68;79.70
83104;BME280;72975;48.134;11.630;2023-11-21T06:48:28;95021.84;;;6.75;79.73
83104;BME280;72975;48.134;11.630;2023-11-21T06:50:57;95032.22;;;6.69;79.43
83104;BME280;72975;48.134;11.630;2023-11-21T06:53:24;95029.13;;;6.71;79.23
83104;BME280;72975;48.134;11.630;2023-11-21T06:55:51;95027.16;;;6.78;78.70
83104;BME280;72975;48.134;11.630;2023-11-21T06:58:21;95033.31;;;6.75;79.08
83104;BME280;72975;48.134;11.630;2023-11-21T07:00:53;95042.13;;;6.76;78.37
83104;BME280;72975;48.134;11.630;2023-11-21T07:03:22;95038.75;;;6.68;79.03
83104;BME280;72975;48.134;11.630;2023-11-21T07:05:51;95034.88;;;6.73;78.79
83104;BME280;72975;48.134;11.630;2023-11-21T07:08:18;95048.69;;;6.71;78.27
83104;BME280;72975;48.134;11.630;2023-11-21T07:10:45;95041.75;;;6.74;78.42
83104;BME280;72975;48.134;11.630;2023-11-21T07:13:12;95046.34;;;6.77;78.35
83104;BME280;72975;48.134;11.630;2023-11-21T07:15:39;95045.19;;;6.78;77.71
83104;BME280;72975;48.134;11.630;2023-11-21T07:18:06;95048.28;;;6.73;77.73
83104;BME280;72975;48.134;11.630;2023-11-21T07:20:34;95048.22;;;6.80;77.71
83104;BME280;72975;48.134;11.630;2023-11-21T07:23:01;95054.38;;;6.77;76.86
83104;BME280;72975;48.134;11.630;2023-11-21T07:25:28;95049.81;;;6.74;76.96
83104;BME280;72975;48.134;11.630;2023-11-21T07:27:55;95050.19;;;6.72;76.98
83104;BME280;72975;48.134;11.630;2023-11-21T07:30:23;95058.22;;;6.79;76.89
83104;BME280;72975;48.134;11.630;2023-11-21T07:32:49;95047.81;;;6.85;77.06
83104;BME280;72975;48.134;11.630;2023-11-21T07:35:16;95054.00;;;6.78;77.60
83104;BME280;72975;48.134;11.630;2023-11-21T07:37:43;95057.03;;;6.84;77.02
83104;BME280;72975;48.134;11.630;2023-11-21T07:40:11;95055.44;;;6.90;76.93
83104;BME280;72975;48.134;11.630;2023-11-21T07:42:38;95066.25;;;6.79;76.86
83104;BME280;72975;48.134;11.630;2023-11-21T07:45:06;95052.38;;;6.88;76.62
83104;BME280;72975;48.134;11.630;2023-11-21T07:47:34;95061.56;;;6.94;76.48
83104;BME280;72975;48.134;11.630;2023-11-21T07:50:03;95062.25;;;7.05;76.04
83104;BME280;72975;48.134;11.630;2023-11-21T07:52:30;95071.38;;;7.11;76.44
83104;BME280;72975;48.134;11.630;2023-11-21T07:54:57;95069.13;;;7.06;75.65
83104;BME280;72975;48.134;11.630;2023-11-21T07:57:24;95066.09;;;7.00;75.96
83104;BME280;72975;48.134;11.630;2023-11-21T07:59:51;95065.69;;;7.02;75.71
83104;BME280;72975;48.134;11.630;2023-11-21T08:02:20;95081.03;;;7.05;75.71
83104;BME280;72975;48.134;11.630;2023-11-21T08:04:47;95073.69;;;7.09;75.32
83104;BME280;72975;48.134;11.630;2023-11-21T08:07:17;95067.53;;;7.12;74.88
83104;BME280;72975;48.134;11.630;2023-11-21T08:09:44;95064.81;;;7.15;75.01
83104;BME280;72975;48.134;11.630;2023-11-21T08:12:11;95067.53;;;7.12;74.76
83104;BME280;72975;48.134;11.630;2023-11-21T08:14:38;95083.25;;;7.10;74.74
83104;BME280;72975;48.134;11.630;2023-11-21T08:17:06;95071.72;;;7.13;74.96
83104;BME280;72975;48.134;11.630;2023-11-21T08:19:33;95063.69;;;7.13;74.17
83104;BME280;72975;48.134;11.630;2023-11-21T08:22:00;95067.13;;;7.17;74.19
83104;BME280;72975;48.134;11.630;2023-11-21T08:24:27;95067.13;;;7.17;74.51
83104;BME280;72975;48.134;11.630;2023-11-21T08:26:54;95070.63;;;7.10;74.41
83104;BME280;72975;48.134;11.630;2023-11-21T08:29:24;95077.53;;;7.08;74.40
83104;BME280;72975;48.134;11.630;2023-11-21T08:31:51;95077.06;;;7.20;74.40
83104;BME280;72975;48.134;11.630;2023-11-21T08:34:19;95071.38;;;7.11;74.29
83104;BME280;72975;48.134;11.630;2023-11-21T08:36:46;95069.03;;;7.13;74.53
83104;BME280;72975;48.134;11.630;2023-11-21T08:39:16;95073.94;;;7.25;74.54
83104;BME280;72975;48.134;11.630;2023-11-21T08:41:47;95065.09;;;7.28;74.01
83104;BME280;72975;48.134;11.630;2023-11-21T08:44:15;95064.94;;;7.45;73.04
83104;BME280;72975;48.134;11.630;2023-11-21T08:46:43;95062.00;;;7.33;73.92
83104;BME280;72975;48.134;11.630;2023-11-21T08:49:12;95058.88;;;7.38;74.25
83104;BME280;72975;48.134;11.630;2023-11-21T08:51:39;95068.03;;;7.44;73.25
83104;BME280;72975;48.134;11.630;2023-11-21T08:54:06;95069.25;;;7.73;72.56
83104;BME280;72975;48.134;11.630;2023-11-21T08:56:34;95071.09;;;8.13;70.71
83104;BME280;72975;48.134;11.630;2023-11-21T08:59:02;95064.44;;;8.28;69.82
83104;BME280;72975;48.134;11.630;2023-11-21T09:01:32;95065.59;;;8.80;68.03
83104;BME280;72975;48.134;11.630;2023-11-21T09:04:02;95073.66;;;8.54;68.54
83104;BME280;72975;48.134;11.630;2023-11-21T09:06:46;95077.84;;;8.58;68.69
83104;BME280;72975;48.134;11.630;2023-11-21T09:09:17;95073.66;;;8.27;69.23
83104;BME280;72975;48.134;11.630;2023-11-21T09:11:44;95074.00;;;8.29;70.17
83104;BME280;72975;48.134;11.630;2023-11-21T09:14:12;95084.31;;;8.34;69.50
83104;BME280;72975;48.134;11.630;2023-11-21T09:16:41;95083.25;;;8.28;69.44
83104;BME280;72975;48.134;11.630;2023-11-21T09:19:09;95081.72;;;8.27;69.60
83104;BME280;72975;48.134;11.630;2023-11-21T09:21:36;95092.38;;;8.34;70.08
83104;BME280;72975;48.134;11.630;2023-11-21T09:24:04;95094.56;;;8.43;70.16
83104;BME280;72975;48.134;11.630;2023-11-21T09:26:31;95104.16;;;8.10;70.36
83104;BME280;72975;48.134;11.630;2023-11-21T09:28:58;95101.53;;;8.40;69.76
83104;BME280;72975;48.134;11.630;2023-11-21T09:31:25;95099.72;;;8.30;70.52
83104;BME280;72975;48.134;11.630;2023-11-21T09:33:54;95102.59;;;8.13;70.70
83104;BME280;72975;48.134;11.630;2023-11-21T09:36:21;95109.53;;;8.10;70.39
83104;BME280;72975;48.134;11.630;2023-11-21T09:38:50;95106.06;;;8.13;70.74
83104;BME280;72975;48.134;11.630;2023-11-21T09:41:33;95107.78;;;8.30;70.72
83104;BME280;72975;48.134;11.630;2023-11-21T09:44:03;95107.78;;;8.60;69.13
83104;BME280;72975;48.134;11.630;2023-11-21T09:46:34;95105.91;;;8.57;69.31
83104;BME280;72975;48.134;11.630;2023-11-21T09:49:02;95102.25;;;8.44;70.19
83104;BME280;72975;48.134;11.630;2023-11-21T09:51:32;95100.44;;;8.64;69.16
83104;BME280;72975;48.134;11.630;2023-11-21T09:54:05;95099.53;;;8.74;69.34
83104;BME280;72975;48.134;11.630;2023-11-21T09:56:37;95103.97;;;8.61;69.25
83104;BME280;72975;48.134;11.630;2023-11-21T09:59:05;95104.44;;;8.53;69.72
83104;BME280;72975;48.134;11.630;2023-11-21T10:01:36;95104.84;;;8.51;69.68
83104;BME280;72975;48.134;11.630;2023-11-21T10:04:06;95111.16;;;8.68;70.05
83104;BME280;72975;48.134;11.630;2023-11-21T10:06:41;95109.06;;;8.79;69.25
83104;BME280;72975;48.134;11.630;2023-11-21T10:09:13;95106.53;;;8.68;69.52
83104;BME280;72975;48.134;11.630;2023-11-21T10:11:42;95103.59;;;8.86;69.21
83104;BME280;72975;48.134;11.630;2023-11-21T10:14:11;95101.47;;;9.00;68.17
83104;BME280;72975;48.134;11.630;2023-11-21T10:16:41;95103.53;;;9.39;68.02
83104;BME280;72975;48.134;11.630;2023-11-21T10:19:11;95103.25;;;9.34;67.09
83104;BME280;72975;48.134;11.630;2023-11-21T10:21:42;95097.09;;;9.33;67.39
83104;BME280;72975;48.134;11.630;2023-11-21T10:24:09;95099.00;;;9.09;68.59
83104;BME280;72975;48.134;11.630;2023-11-21T10:26:36;95094.94;;;9.25;67.24
83104;BME280;72975;48.134;11.630;2023-11-21T10:29:19;95097.38;;;9.62;66.29
83104;BME280;72975;48.134;11.630;2023-11-21T10:31:51;95094.34;;;9.60;66.59
83104;BME280;72975;48.134;11.630;2023-11-21T10:34:20;95094.16;;;9.47;66.96
83104;BME280;72975;48.134;11.630;2023-11-21T10:36:48;95096.22;;;9.16;67.27
83104;BME280;72975;48.134;11.630;2023-11-21T10:39:22;95099.63;;;9.20;67.47
83104;BME280;72975;48.134;11.630;2023-11-21T10:41:50;95103.50;;;9.19;67.63
83104;BME280;72975;48.134;11.630;2023-11-21T10:44:18;95104.41;;;9.09;68.61
83104;BME280;72975;48.134;11.630;2023-11-21T10:46:52;95112.03;;;9.14;68.21
83104;BME280;72975;48.134;11.630;2023-11-21T10:49:25;95110.59;;;9.06;69.13
83104;BME280;72975;48.134;11.630;2023-11-21T10:51:54;95103.94;;;9.14;68.31
83104;BME280;72975;48.134;11.630;2023-11-21T10:54:23;95102.94;;;9.28;67.76
83104;BME280;72975;48.134;11.630;2023-11-21T10:56:58;95099.66;;;9.17;68.59
83104;BME280;72975;48.134;11.630;2023-11-21T10:59:30;95097.97;;;9.27;67.87
83104;BME280;72975;48.134;11.630;2023-11-21T11:02:01;95099.34;;;9.38;68.28
83104;BME280;72975;48.134;11.630;2023-11-21T11:04:31;95106.22;;;9.39;68.42
83104;BME280;72975;48.134;11.630;2023-11-21T11:07:02;95098.19;;;9.12;69.54
83104;BME280;72975;48.134;11.630;2023-11-21T11:09:32;95097.13;;;9.06;69.13
83104;BME280;72975;48.134;11.630;2023-11-21T11:12:02;95095.97;;;9.07;69.42
83104;BME280;72975;48.134;11.630;2023-11-21T11:14:32;95095.56;;;8.82;70.48
83104;BME280;72975;48.134;11.630;2023-11-21T11:16:59;95097.13;;;9.06;69.19
83104;BME280;72975;48.134;11.630;2023-11-21T11:19:28;95099.00;;;9.09;69.82
83104;BME280;72975;48.134;11.630;2023-11-21T11:22:24;95095.16;;;9.10;69.67
83104;BME280;72975;48.134;11.630;2023-11-21T11:28:17;95094.72;;;9.39;67.49
83104;BME280;72975;48.134;11.630;2023-11-21T11:31:05;95105.84;;;9.64;67.14
83104;BME280;72975;48.134;11.630;2023-11-21T11:33:45;95095.94;;;9.57;66.86
83104;BME280;72975;48.134;11.630;2023-11-21T11:36:37;95095.72;;;9.48;66.92
83104;BME280;72975;48.134;11.630;2023-11-21T11:39:28;95088.13;;;9.63;67.31
83104;BME280;72975;48.134;11.630;2023-11-21T11:41:58;95090.03;;;9.66;67.12
83104;BME280;72975;48.134;11.630;2023-11-21T11:47:20;95088.25;;;9.09;69.50
83104;BME280;72975;48.134;11.630;2023-11-21T11:50:09;95087.19;;;9.03;69.63
83104;BME280;72975;48.134;11.630;2023-11-21T11:52:51;95086.81;;;9.01;69.66
83104;BME280;72975;48.134;11.630;2023-11-21T11:55:21;95088.09;;;8.93;69.81
83104;BME280;72975;48.134;11.630;2023-11-21T11:57:54;95085.31;;;9.00;69.72
83104;BME280;72975;48.134;11.630;2023-11-21T12:03:00;95084.50;;;9.03;69.36
83104;BME280;72975;48.134;11.630;2023-11-21T12:05:33;95084.72;;;9.12;69.17
83104;BME280;72975;48.134;11.630;2023-11-21T12:08:04;95083.72;;;9.03;69.98
83104;BME280;72975;48.134;11.630;2023-11-21T12:10:37;95085.97;;;8.81;70.27
83104;BME280;72975;48.134;11.630;2023-11-21T12:13:09;95097.28;;;8.69;71.41
83104;BME280;72975;48.134;11.630;2023-11-21T12:15:39;95088.09;;;8.67;70.79
83104;BME280;72975;48.134;11.630;2023-11-21T12:18:08;95090.94;;;8.56;69.84
83104;BME280;72975;48.134;11.630;2023-11-21T12:20:35;95087.00;;;8.64;69.81
83104;BME280;72975;48.134;11.630;2023-11-21T12:23:06;95090.75;;;8.70;69.64
83104;BME280;72975;48.134;11.630;2023-11-21T12:25:33;95086.69;;;8.85;68.82
83104;BME280;72975;48.134;11.630;2023-11-21T12:28:02;95092.88;;;8.82;68.21
83104;BME280;72975;48.134;11.630;2023-11-21T12:30:35;95095.44;;;8.93;67.90
83104;BME280;72975;48.134;11.630;2023-11-21T12:33:03;95088.47;;;8.95;68.01
83104;BME280;72975;48.134;11.630;2023-11-21T12:35:33;95087.41;;;8.89;67.93
83104;BME280;72975;48.134;11.630;2023-11-21T12:38:04;95084.63;;;9.19;67.36
83104;BME280;72975;48.134;11.630;2023-11-21T12:40:32;95087.53;;;9.52;66.46
83104;BME280;72975;48.134;11.630;2023-11-21T12:43:00;95085.97;;;9.97;64.89
83104;BME280;72975;48.134;11.630;2023-11-21T12:45:29;95085.28;;;10.51;62.63
83104;BME280;72975;48.134;11.630;2023-11-21T12:48:01;95082.03;;;11.12;59.83
83104;BME280;72975;48.134;11.630;2023-11-21T12:50:31;95092.06;;;11.43;59.35
83104;BME280;72975;48.134;11.630;2023-11-21T12:53:10;95080.78;;;11.64;57.65
83104;BME280;72975;48.134;11.630;2023-11-21T12:55:40;95092.34;;;10.65;60.99
83104;BME280;72975;48.134;11.630;2023-11-21T12:58:10;95097.06;;;10.22;62.56
83104;BME280;72975;48.134;11.630;2023-11-21T13:00:46;95089.75;;;9.80;64.07
83104;BME280;72975;48.134;11.630;2023-11-21T13:03:16;95091.56;;;9.44;65.82
83104;BME280;72975;48.134;11.630;2023-11-21T13:05:48;95097.31;;;8.96;68.65
83104;BME280;72975;48.134;11.630;2023-11-21T13:08:23;95109.47;;;8.77;68.85
83104;BME280;72975;48.134;11.630;2023-11-21T13:10:58;95103.22;;;8.57;68.73
83104;BME280;72975;48.134;11.630;2023-11-21T13:13:30;95107.28;;;8.42;69.85
83104;BME280;72975;48.134;11.630;2023-11-21T13:16:02;95100.41;;;8.38;69.23
83104;BME280;72975;48.134;11.630;2023-11-21T13:18:33;95106.03;;;8.50;68.65